Time;durP1;ratioP1;P1;durP2;ratioP2;P2;SDS_P1;SDS_P2;PMS_P1;PMS_P2;Temp;Humidity;BMP_temperature;BMP_pressure;BME280_temperature;BME280_humidity;BME280_pressure;Samples;Min_cycle;Max_cycle;Signal;HPM_P1;HPM_P2
2022/07/29 00:01:19;;;;;;;;;;;14.30;99.90;;;;;;4966646;28;19999;-79
2022/07/29 00:03:45;;;;;;;;;;;14.30;99.90;;;;;;4980938;28;20285;-79
2022/07/29 00:06:10;;;;;;;;;;;14.30;99.90;;;;;;4982671;28;19936;-79
2022/07/29 00:08:36;;;;;;;;;;;14.30;99.90;;;;;;4951762;28;20000;-80
2022/07/29 00:11:02;;;;;;;;;;;14.30;99.90;;;;;;4973780;28;20458;-80
2022/07/29 00:13:28;;;;;;;;;;;14.30;99.90;;;;;;4967019;28;19926;-79
2022/07/29 00:15:54;;;;;;;;;;;14.40;99.90;;;;;;4978330;28;20270;-79
2022/07/29 00:18:19;;;;;;;;;;;14.40;99.90;;;;;;4948965;28;19979;-79
2022/07/29 00:20:45;;;;;;;;;;;14.40;99.90;;;;;;4955140;28;19925;-78
2022/07/29 00:23:11;;;;;;;;;;;14.40;99.90;;;;;;4955620;28;20010;-80
2022/07/29 00:25:37;;;;;;;;;;;14.40;99.90;;;;;;4956984;28;19957;-80
2022/07/29 00:28:02;;;;;;;;;;;14.40;99.90;;;;;;4965040;28;19937;-81
2022/07/29 00:30:28;;;;;;;;;;;14.40;99.90;;;;;;4970368;28;20160;-82
2022/07/29 00:32:54;;;;;;;;;;;14.50;99.90;;;;;;4976493;28;19930;-84
2022/07/29 00:38:04;;;;;;;;;;;14.50;99.90;;;;;;4989656;28;19926;-82
2022/07/29 00:40:30;;;;;;;;;;;14.50;99.90;;;;;;4976406;28;20389;-80
2022/07/29 00:42:56;;;;;;;;;;;14.50;99.90;;;;;;4982598;28;19926;-82
2022/07/29 00:45:21;;;;;;;;;;;14.50;99.90;;;;;;4987793;28;20786;-80
2022/07/29 00:47:48;;;;;;;;;;;14.50;99.90;;;;;;4981610;28;20396;-81
2022/07/29 00:50:14;;;;;;;;;;;14.50;99.90;;;;;;4965482;28;19925;-83
2022/07/29 00:52:40;;;;;;;;;;;14.50;99.90;;;;;;4984069;28;19979;-80
2022/07/29 00:55:07;;;;;;;;;;;14.60;99.90;;;;;;4989062;28;20044;-80
2022/07/29 00:57:35;;;;;;;;;;;14.60;99.90;;;;;;4969475;28;19993;-81
2022/07/29 01:00:01;;;;;;;;;;;14.60;99.90;;;;;;4964422;28;19933;-81
2022/07/29 01:02:27;;;;;;;;;;;14.60;99.90;;;;;;4974351;28;20402;-80
2022/07/29 01:04:53;;;;;;;;;;;14.70;99.90;;;;;;4950259;28;19926;-85
2022/07/29 01:07:19;;;;;;;;;;;14.70;99.90;;;;;;4970869;28;19929;-84
2022/07/29 01:09:45;;;;;;;;;;;14.70;99.90;;;;;;4964008;28;19925;-79
2022/07/29 01:12:12;;;;;;;;;;;14.70;99.90;;;;;;4961411;28;19936;-79
2022/07/29 01:14:38;;;;;;;;;;;14.70;99.90;;;;;;4959875;28;19925;-80
2022/07/29 01:17:10;;;;;;;;;;;14.70;99.90;;;;;;4959073;28;20003;-83
2022/07/29 01:19:36;;;;;;;;;;;;;;;;;;4981658;28;19925;-84
2022/07/29 01:22:10;;;;;;;;;;;14.80;99.90;;;;;;4959257;28;20392;-79
2022/07/29 01:24:56;;;;;;;;;;;14.80;99.90;;;;;;4976816;28;20524;-80
2022/07/29 01:27:28;;;;;;;;;;;14.80;99.90;;;;;;4978043;28;19952;-80
2022/07/29 01:29:56;;;;;;;;;;;14.80;99.90;;;;;;4986749;28;19946;-80
2022/07/29 01:32:25;;;;;;;;;;;14.80;99.90;;;;;;4976162;28;19925;-81
2022/07/29 01:35:10;;;;;;;;;;;14.80;99.90;;;;;;4959015;28;20427;-80
2022/07/29 01:37:54;;;;;;;;;;;14.80;99.90;;;;;;4983534;28;20372;-81
2022/07/29 01:40:26;;;;;;;;;;;14.70;99.90;;;;;;4966724;28;20400;-79
2022/07/29 01:42:54;;;;;;;;;;;14.70;99.90;;;;;;4977028;28;20016;-81
2022/07/29 01:45:23;;;;;;;;;;;14.70;99.90;;;;;;4958575;28;20372;-80
2022/07/29 01:47:58;;;;;;;;;;;14.70;99.90;;;;;;4986711;28;19944;-81
2022/07/29 01:50:28;;;;;;;;;;;14.70;99.90;;;;;;4964628;28;19926;-80
2022/07/29 01:52:56;;;;;;;;;;;14.70;99.90;;;;;;4987033;28;19926;-80
2022/07/29 01:55:24;;;;;;;;;;;14.70;99.90;;;;;;4981706;28;20367;-82
2022/07/29 01:57:51;;;;;;;;;;;14.70;99.90;;;;;;4980065;28;19929;-79
2022/07/29 02:00:17;;;;;;;;;;;14.70;99.90;;;;;;4971364;28;19929;-80
2022/07/29 02:02:44;;;;;;;;;;;14.70;99.90;;;;;;4962601;28;19930;-81
2022/07/29 02:08:44;;;;;;;;;;;14.70;99.90;;;;;;5046961;23;19933;-80
2022/07/29 02:11:11;;;;;;;;;;;14.70;99.90;;;;;;4967745;28;19934;-79
2022/07/29 02:13:37;;;;;;;;;;;14.70;99.90;;;;;;4977032;28;19964;-79
2022/07/29 02:16:05;;;;;;;;;;;14.70;99.90;;;;;;4972359;28;20462;-81
2022/07/29 02:18:31;;;;;;;;;;;14.70;99.90;;;;;;4978223;28;19933;-79
2022/07/29 02:20:59;;;;;;;;;;;14.70;99.90;;;;;;4979530;28;20384;-79
2022/07/29 02:23:25;;;;;;;;;;;14.70;99.90;;;;;;4990625;28;19930;-79
2022/07/29 02:25:52;;;;;;;;;;;14.70;99.90;;;;;;4991525;28;19934;-81
2022/07/29 02:28:26;;;;;;;;;;;14.70;99.90;;;;;;4992120;28;19929;-79
2022/07/29 02:30:54;;;;;;;;;;;14.70;99.90;;;;;;4991628;28;19933;-79
2022/07/29 02:33:21;;;;;;;;;;;14.70;99.90;;;;;;4976705;28;19929;-80
2022/07/29 02:35:48;;;;;;;;;;;14.70;99.90;;;;;;4992606;28;19935;-78
2022/07/29 02:41:01;;;;;;;;;;;14.70;99.90;;;;;;4976997;28;19931;-81
2022/07/29 02:43:28;;;;;;;;;;;14.70;99.90;;;;;;4992905;28;20356;-80
2022/07/29 02:45:54;;;;;;;;;;;14.70;99.90;;;;;;4987438;28;19925;-79
2022/07/29 02:48:27;;;;;;;;;;;14.70;99.90;;;;;;4984217;28;19925;-79
2022/07/29 02:50:59;;;;;;;;;;;14.70;99.90;;;;;;5002089;28;20431;-80
2022/07/29 02:53:26;;;;;;;;;;;14.70;99.90;;;;;;4992231;28;19975;-78
2022/07/29 02:55:58;;;;;;;;;;;14.70;99.90;;;;;;4981562;28;20388;-78
2022/07/29 02:58:36;;;;;;;;;;;14.70;99.90;;;;;;4975181;28;19929;-80
2022/07/29 03:01:11;;;;;;;;;;;14.70;99.90;;;;;;5001040;28;19926;-81
2022/07/29 03:03:39;;;;;;;;;;;14.70;99.90;;;;;;4979824;28;20425;-79
2022/07/29 03:06:05;;;;;;;;;;;14.70;99.90;;;;;;4985643;28;20008;-79
2022/07/29 03:08:32;;;;;;;;;;;14.70;99.90;;;;;;4971095;28;20415;-79
2022/07/29 03:10:58;;;;;;;;;;;14.70;99.90;;;;;;4963112;28;20378;-80
2022/07/29 03:13:42;;;;;;;;;;;14.70;99.90;;;;;;4958277;28;20450;-78
2022/07/29 03:16:08;;;;;;;;;;;14.70;99.90;;;;;;4978434;28;20495;-79
2022/07/29 03:18:41;;;;;;;;;;;14.70;99.90;;;;;;4976428;28;20343;-80
2022/07/29 03:21:07;;;;;;;;;;;14.70;99.90;;;;;;4957466;28;19929;-80
2022/07/29 03:23:33;;;;;;;;;;;14.70;99.90;;;;;;4997760;28;20380;-80
2022/07/29 03:25:59;;;;;;;;;;;14.70;99.90;;;;;;4974660;28;20338;-79
2022/07/29 03:28:27;;;;;;;;;;;14.70;99.90;;;;;;4975015;28;19941;-77
2022/07/29 03:30:53;;;;;;;;;;;14.70;99.90;;;;;;4960418;28;20354;-79
2022/07/29 03:33:19;;;;;;;;;;;14.70;99.90;;;;;;4997716;28;19925;-80
2022/07/29 03:35:45;;;;;;;;;;;14.70;99.90;;;;;;4978261;28;19952;-79
2022/07/29 03:38:33;;;;;;;;;;;14.70;99.90;;;;;;4978398;28;19955;-80
2022/07/29 03:41:19;;;;;;;;;;;14.70;99.90;;;;;;5004079;28;19965;-82
2022/07/29 03:43:47;;;;;;;;;;;14.70;99.90;;;;;;4980892;28;19929;-79
2022/07/29 03:46:14;;;;;;;;;;;14.70;99.90;;;;;;4991830;28;19929;-80
2022/07/29 03:48:41;;;;;;;;;;;14.70;99.90;;;;;;4968225;28;20281;-80
2022/07/29 03:51:07;;;;;;;;;;;14.70;99.90;;;;;;4992880;28;19986;-80
2022/07/29 03:53:36;;;;;;;;;;;14.70;99.90;;;;;;4992062;28;20003;-78
2022/07/29 03:56:02;;;;;;;;;;;14.70;99.90;;;;;;4974803;28;19941;-78
2022/07/29 03:58:29;;;;;;;;;;;14.70;99.90;;;;;;4958002;28;20282;-78
2022/07/29 04:00:55;;;;;;;;;;;14.70;99.90;;;;;;4972187;28;19934;-80
2022/07/29 04:03:22;;;;;;;;;;;14.70;99.90;;;;;;4975273;28;20327;-80
2022/07/29 04:06:01;;;;;;;;;;;14.70;99.90;;;;;;4995488;28;19925;-79
2022/07/29 04:08:26;;;;;;;;;;;14.70;99.90;;;;;;4979459;28;19937;-81
2022/07/29 04:10:57;;;;;;;;;;;14.70;99.90;;;;;;4978727;28;19989;-81
2022/07/29 04:13:24;;;;;;;;;;;14.70;99.90;;;;;;5009233;28;19925;-81
2022/07/29 04:16:18;;;;;;;;;;;14.70;99.90;;;;;;5007078;28;20024;-81
2022/07/29 04:18:50;;;;;;;;;;;14.70;99.90;;;;;;4988577;28;19929;-82
2022/07/29 04:21:18;;;;;;;;;;;14.70;99.90;;;;;;4991363;28;19936;-78
2022/07/29 04:24:02;;;;;;;;;;;14.80;99.90;;;;;;4994280;28;19921;-81
2022/07/29 04:26:28;;;;;;;;;;;14.70;99.90;;;;;;4986070;28;19940;-80
2022/07/29 04:28:57;;;;;;;;;;;14.80;99.90;;;;;;4959896;28;19926;-82
2022/07/29 04:31:36;;;;;;;;;;;14.80;99.90;;;;;;4974642;28;19932;-80
2022/07/29 04:34:01;;;;;;;;;;;14.80;99.90;;;;;;4977027;28;19945;-78
2022/07/29 04:36:27;;;;;;;;;;;14.80;99.90;;;;;;4975772;28;19925;-80
2022/07/29 04:38:53;;;;;;;;;;;14.80;99.90;;;;;;4980031;28;19956;-79
2022/07/29 04:41:19;;;;;;;;;;;14.80;99.90;;;;;;4954622;28;19921;-80
2022/07/29 04:43:45;;;;;;;;;;;14.80;99.90;;;;;;4974577;28;20016;-80
2022/07/29 04:46:11;;;;;;;;;;;14.80;99.90;;;;;;4959159;28;20566;-80
2022/07/29 04:48:37;;;;;;;;;;;14.80;99.90;;;;;;4955777;28;19926;-79
2022/07/29 04:51:03;;;;;;;;;;;14.90;99.90;;;;;;4970853;28;20284;-80
2022/07/29 04:53:29;;;;;;;;;;;14.80;99.90;;;;;;4976642;28;20394;-80
2022/07/29 04:55:55;;;;;;;;;;;14.90;99.90;;;;;;4990002;28;19930;-79
2022/07/29 04:58:22;;;;;;;;;;;14.90;99.90;;;;;;4989508;28;19948;-79
2022/07/29 05:00:49;;;;;;;;;;;14.90;99.90;;;;;;4988749;28;20411;-81
2022/07/29 05:03:15;;;;;;;;;;;14.90;99.90;;;;;;4967579;28;19932;-80
2022/07/29 05:05:42;;;;;;;;;;;14.90;99.90;;;;;;4998453;28;19926;-81
2022/07/29 05:08:07;;;;;;;;;;;14.90;99.90;;;;;;4990263;28;19932;-79
2022/07/29 05:10:40;;;;;;;;;;;14.90;99.90;;;;;;4989661;28;19932;-82
2022/07/29 05:13:07;;;;;;;;;;;15.00;99.90;;;;;;4939836;28;20049;-79
2022/07/29 05:15:33;;;;;;;;;;;15.00;99.90;;;;;;4969171;28;19932;-80
2022/07/29 05:17:59;;;;;;;;;;;15.00;99.90;;;;;;4955315;28;20338;-82
2022/07/29 05:20:28;;;;;;;;;;;15.00;99.90;;;;;;4955756;28;19926;-79
2022/07/29 05:22:54;;;;;;;;;;;15.00;99.90;;;;;;4978548;28;20014;-81
2022/07/29 05:25:21;;;;;;;;;;;15.10;99.90;;;;;;4944919;28;19937;-78
2022/07/29 05:27:47;;;;;;;;;;;15.10;99.90;;;;;;4952205;28;19934;-81
2022/07/29 05:30:12;;;;;;;;;;;15.10;99.90;;;;;;4967160;28;20319;-78
2022/07/29 05:32:39;;;;;;;;;;;15.10;99.90;;;;;;4951835;28;19933;-80
2022/07/29 05:35:05;;;;;;;;;;;15.10;99.90;;;;;;4959783;28;19941;-82
2022/07/29 05:37:35;;;;;;;;;;;15.20;99.90;;;;;;4945249;28;19934;-80
2022/07/29 05:40:01;;;;;;;;;;;15.20;99.90;;;;;;4964894;28;19926;-80
2022/07/29 05:42:28;;;;;;;;;;;15.20;99.90;;;;;;4965170;28;19926;-79
2022/07/29 05:44:55;;;;;;;;;;;15.30;99.90;;;;;;4945827;28;20515;-79
2022/07/29 05:47:21;;;;;;;;;;;15.30;99.90;;;;;;4953144;28;19949;-79
2022/07/29 05:49:47;;;;;;;;;;;15.30;99.90;;;;;;4970279;28;19930;-81
2022/07/29 05:52:13;;;;;;;;;;;15.40;99.90;;;;;;4977889;28;20494;-82
2022/07/29 05:54:58;;;;;;;;;;;15.40;99.90;;;;;;4925482;28;19976;-80
2022/07/29 05:57:24;;;;;;;;;;;15.60;99.90;;;;;;4960798;28;20327;-81
2022/07/29 05:59:50;;;;;;;;;;;15.50;99.90;;;;;;4972025;28;19929;-80
2022/07/29 06:02:16;;;;;;;;;;;15.50;99.90;;;;;;4955535;28;19984;-79
2022/07/29 06:04:43;;;;;;;;;;;15.50;99.90;;;;;;4993171;28;20675;-80
2022/07/29 06:10:16;;;;;;;;;;;15.60;99.90;;;;;;4908246;29;20001;-79
2022/07/29 06:16:10;;;;;;;;;;;15.30;99.90;;;;;;4949751;28;19934;-80
2022/07/29 06:18:46;;;;;;;;;;;15.70;99.90;;;;;;4921315;29;19929;-79
2022/07/29 06:21:12;;;;;;;;;;;15.80;99.90;;;;;;4949818;28;19984;-81
2022/07/29 06:23:39;;;;;;;;;;;15.80;99.90;;;;;;4932151;29;19915;-82
2022/07/29 06:26:05;;;;;;;;;;;15.80;99.90;;;;;;4934453;28;19926;-80
2022/07/29 06:28:34;;;;;;;;;;;15.80;99.90;;;;;;4950145;28;20039;-80
2022/07/29 06:31:00;;;;;;;;;;;15.90;99.90;;;;;;4916574;29;20514;-81
2022/07/29 06:41:35;;;;;;;;;;;16.20;99.90;;;;;;4987931;28;20718;-81
2022/07/29 06:44:04;;;;;;;;;;;16.20;99.90;;;;;;4963442;28;19936;-80
2022/07/29 06:46:32;;;;;;;;;;;16.30;99.90;;;;;;4952916;28;19975;-79
2022/07/29 06:48:58;;;;;;;;;;;16.40;99.90;;;;;;4971241;28;19932;-81
2022/07/29 07:01:05;;;;;;;;;;;16.80;99.90;;;;;;4968690;28;19958;-79
2022/07/29 07:03:31;;;;;;;;;;;16.80;99.90;;;;;;4940596;28;19962;-81
2022/07/29 07:06:00;;;;;;;;;;;16.80;99.90;;;;;;4952459;28;19936;-84
2022/07/29 07:08:27;;;;;;;;;;;16.90;99.90;;;;;;4952336;28;20017;-82
2022/07/29 07:10:55;;;;;;;;;;;17.00;99.90;;;;;;4923416;28;20017;-79
2022/07/29 07:13:20;;;;;;;;;;;17.00;99.90;;;;;;4948031;28;19928;-80
2022/07/29 07:15:48;;;;;;;;;;;17.10;99.90;;;;;;4937239;28;19949;-85
2022/07/29 07:18:14;;;;;;;;;;;17.20;99.90;;;;;;4952469;28;19926;-84
2022/07/29 07:20:40;;;;;;;;;;;17.30;99.90;;;;;;4959552;28;19977;-82
2022/07/29 07:23:06;;;;;;;;;;;17.30;99.90;;;;;;4956151;28;19961;-83
2022/07/29 07:25:32;;;;;;;;;;;17.30;99.90;;;;;;4954385;28;19929;-82
2022/07/29 07:27:57;;;;;;;;;;;17.30;99.90;;;;;;4954283;28;20392;-83
2022/07/29 07:30:23;;;;;;;;;;;17.30;99.90;;;;;;4965337;28;19937;-80
2022/07/29 07:32:49;;;;;;;;;;;17.30;99.90;;;;;;4960052;28;19926;-82
2022/07/29 07:35:15;;;;;;;;;;;17.20;99.90;;;;;;4954203;28;19930;-81
2022/07/29 07:37:41;;;;;;;;;;;17.30;99.90;;;;;;4954934;28;20318;-78
2022/07/29 07:40:08;;;;;;;;;;;17.20;99.90;;;;;;4906262;28;20008;-80
2022/07/29 07:42:34;;;;;;;;;;;17.20;99.90;;;;;;4951082;28;19933;-80
2022/07/29 07:45:00;;;;;;;;;;;17.20;99.90;;;;;;4954989;28;19926;-78
2022/07/29 07:47:26;;;;;;;;;;;17.10;99.90;;;;;;4938621;28;19977;-82
2022/07/29 07:49:52;;;;;;;;;;;17.10;99.90;;;;;;4969581;28;19941;-80
2022/07/29 07:52:20;;;;;;;;;;;17.10;99.90;;;;;;4939796;28;19926;-79
2022/07/29 07:54:47;;;;;;;;;;;17.20;99.90;;;;;;4943955;28;19937;-79
2022/07/29 07:57:14;;;;;;;;;;;17.20;99.90;;;;;;4953741;28;20040;-80
2022/07/29 07:59:40;;;;;;;;;;;17.20;99.90;;;;;;4951781;28;19929;-80
2022/07/29 08:02:06;;;;;;;;;;;17.30;99.90;;;;;;4953407;28;20048;-81
2022/07/29 08:04:32;;;;;;;;;;;17.30;99.90;;;;;;4935816;28;20684;-81
2022/07/29 08:06:58;;;;;;;;;;;17.30;99.90;;;;;;4935917;28;19934;-83
2022/07/29 08:09:25;;;;;;;;;;;17.40;99.90;;;;;;4948478;28;19932;-82
2022/07/29 08:11:51;;;;;;;;;;;17.40;99.90;;;;;;4936027;28;19926;-82
2022/07/29 08:14:16;;;;;;;;;;;17.40;99.90;;;;;;4965158;28;20247;-79
2022/07/29 08:16:43;;;;;;;;;;;17.50;99.90;;;;;;4944942;28;20082;-82
2022/07/29 08:19:11;;;;;;;;;;;17.50;99.90;;;;;;4951292;28;19933;-89
2022/07/29 08:21:37;;;;;;;;;;;17.50;99.90;;;;;;4935798;28;19938;-79
2022/07/29 08:26:48;;;;;;;;;;;17.70;99.90;;;;;;4953031;28;19958;-83
2022/07/29 08:29:16;;;;;;;;;;;17.90;99.90;;;;;;4956981;28;20505;-83
2022/07/29 08:31:42;;;;;;;;;;;18.10;99.90;;;;;;4956359;28;19937;-79
2022/07/29 08:34:08;;;;;;;;;;;18.20;99.90;;;;;;4936198;28;19930;-81
2022/07/29 08:36:34;;;;;;;;;;;18.30;99.90;;;;;;4919363;28;19966;-79
2022/07/29 08:39:01;;;;;;;;;;;18.30;99.90;;;;;;4917853;28;19988;-85
2022/07/29 08:41:27;;;;;;;;;;;18.30;99.90;;;;;;4950625;28;20378;-82
2022/07/29 08:43:53;;;;;;;;;;;18.30;99.90;;;;;;4947827;28;19945;-80
2022/07/29 08:46:20;;;;;;;;;;;18.40;99.90;;;;;;4946311;28;20455;-80
2022/07/29 08:48:46;;;;;;;;;;;18.50;99.90;;;;;;4970092;28;19938;-79
2022/07/29 08:51:13;;;;;;;;;;;18.60;99.90;;;;;;4949894;28;20062;-77
2022/07/29 08:53:41;;;;;;;;;;;18.60;99.90;;;;;;4952549;28;19930;-80
2022/07/29 08:56:06;;;;;;;;;;;18.60;99.90;;;;;;4952009;28;19934;-81
2022/07/29 08:58:33;;;;;;;;;;;18.60;99.90;;;;;;4948417;28;19934;-83
2022/07/29 09:01:01;;;;;;;;;;;18.50;99.90;;;;;;4949735;28;19961;-79
2022/07/29 09:03:30;;;;;;;;;;;18.50;99.90;;;;;;4965703;28;19970;-85
2022/07/29 09:05:56;;;;;;;;;;;18.50;99.90;;;;;;4947563;28;20029;-81
2022/07/29 09:08:24;;;;;;;;;;;18.50;99.90;;;;;;4939208;28;19929;-80
2022/07/29 09:10:51;;;;;;;;;;;18.40;99.90;;;;;;4954539;28;20522;-79
2022/07/29 09:13:17;;;;;;;;;;;18.40;99.90;;;;;;4967525;28;19980;-82
2022/07/29 09:15:43;;;;;;;;;;;18.40;99.90;;;;;;4967450;28;20046;-80
2022/07/29 09:18:09;;;;;;;;;;;18.40;99.90;;;;;;4952936;28;19933;-81
2022/07/29 09:23:19;;;;;;;;;;;18.30;99.90;;;;;;4949862;28;19926;-81
2022/07/29 09:25:46;;;;;;;;;;;18.30;99.90;;;;;;4950987;28;19936;-79
2022/07/29 09:28:16;;;;;;;;;;;18.30;99.90;;;;;;4937555;28;19973;-80
2022/07/29 09:30:52;;;;;;;;;;;18.30;99.90;;;;;;4955039;28;19926;-80
2022/07/29 09:33:18;;;;;;;;;;;18.30;99.90;;;;;;4935441;28;20017;-81
2022/07/29 09:35:44;;;;;;;;;;;18.30;99.90;;;;;;4950706;28;20013;-80
2022/07/29 09:38:10;;;;;;;;;;;18.30;99.90;;;;;;4951504;28;20010;-79
2022/07/29 09:40:36;;;;;;;;;;;18.30;99.90;;;;;;4950546;28;19933;-82
2022/07/29 09:43:20;;;;;;;;;;;18.30;99.90;;;;;;5073005;23;19933;-80
2022/07/29 09:46:05;;;;;;;;;;;18.30;99.90;;;;;;4947021;28;19937;-80
2022/07/29 09:48:50;;;;;;;;;;;18.30;99.90;;;;;;4980391;28;19980;-78
2022/07/29 09:51:34;;;;;;;;;;;18.30;99.90;;;;;;4966233;28;19933;-78
2022/07/29 09:54:19;;;;;;;;;;;18.30;99.90;;;;;;4950664;28;19926;-81
2022/07/29 09:57:04;;;;;;;;;;;18.30;99.90;;;;;;4946099;28;19926;-79
2022/07/29 09:59:48;;;;;;;;;;;18.40;99.90;;;;;;4952616;28;19925;-79
2022/07/29 10:02:33;;;;;;;;;;;18.40;99.90;;;;;;4951404;28;20316;-79
2022/07/29 10:05:18;;;;;;;;;;;18.40;99.90;;;;;;4966544;28;19926;-80
2022/07/29 10:08:03;;;;;;;;;;;18.40;99.90;;;;;;4954854;28;20075;-81
2022/07/29 10:10:47;;;;;;;;;;;18.40;99.90;;;;;;4968668;28;20029;-79
2022/07/29 10:13:32;;;;;;;;;;;18.50;99.90;;;;;;4969339;28;20004;-80
2022/07/29 10:16:17;;;;;;;;;;;18.50;99.90;;;;;;4968299;28;19951;-79
2022/07/29 10:19:02;;;;;;;;;;;18.50;99.90;;;;;;4956039;28;19970;-80
2022/07/29 10:21:46;;;;;;;;;;;18.60;99.90;;;;;;4959222;28;19926;-80
2022/07/29 10:24:31;;;;;;;;;;;18.60;99.90;;;;;;4950303;28;19952;-80
2022/07/29 10:27:16;;;;;;;;;;;18.60;99.90;;;;;;4947901;28;19933;-82
2022/07/29 10:30:01;;;;;;;;;;;18.60;99.90;;;;;;4945832;28;19941;-81
2022/07/29 10:32:46;;;;;;;;;;;18.60;99.90;;;;;;4949882;28;20348;-80
2022/07/29 10:35:30;;;;;;;;;;;18.70;99.90;;;;;;4955476;28;20360;-80
2022/07/29 10:38:36;;;;;;;;;;;18.70;99.90;;;;;;4962205;28;19941;-82
2022/07/29 10:41:26;;;;;;;;;;;18.40;99.90;;;;;;4959468;28;20025;-80
2022/07/29 10:44:11;;;;;;;;;;;18.80;99.90;;;;;;4968487;28;19930;-80
2022/07/29 10:46:55;;;;;;;;;;;18.80;99.90;;;;;;4954868;28;19930;-78
2022/07/29 10:49:40;;;;;;;;;;;18.80;99.90;;;;;;4973384;28;19937;-79
2022/07/29 10:52:27;;;;;;;;;;;18.90;99.90;;;;;;4962218;28;20016;-79
2022/07/29 10:58:23;;;;;;;;;;;19.00;99.90;;;;;;5018147;23;19960;-81
2022/07/29 11:00:57;;;;;;;;;;;19.00;99.90;;;;;;3411218;23;20124;-78
2022/07/29 11:03:42;;;;;;;;;;;19.10;99.90;;;;;;4935375;28;19961;-86
2022/07/29 11:06:08;;;;;;;;;;;19.10;99.90;;;;;;4934402;29;19934;-79
2022/07/29 11:08:34;;;;;;;;;;;19.20;99.90;;;;;;4924895;29;20035;-79
2022/07/29 11:11:18;;;;;;;;;;;19.30;99.90;;;;;;4901678;29;19927;-80
2022/07/29 11:13:47;;;;;;;;;;;19.30;99.90;;;;;;4915905;28;19927;-81
2022/07/29 11:16:14;;;;;;;;;;;19.30;99.90;;;;;;4944218;29;19996;-81
2022/07/29 11:18:58;;;;;;;;;;;19.40;99.90;;;;;;4929380;29;19930;-79
2022/07/29 11:21:37;;;;;;;;;;;19.40;99.90;;;;;;4917500;29;19997;-80
2022/07/29 11:24:17;;;;;;;;;;;19.50;99.90;;;;;;4913441;29;19937;-81
2022/07/29 11:26:43;;;;;;;;;;;19.50;99.90;;;;;;4931061;29;19927;-83
2022/07/29 11:29:18;;;;;;;;;;;19.60;99.90;;;;;;4907165;28;19934;-79
2022/07/29 11:31:45;;;;;;;;;;;19.60;99.90;;;;;;4928384;29;19938;-86
2022/07/29 11:34:25;;;;;;;;;;;19.60;99.90;;;;;;4933589;28;20374;-80
2022/07/29 11:37:09;;;;;;;;;;;19.70;99.90;;;;;;4917080;29;19934;-81
2022/07/29 11:39:36;;;;;;;;;;;19.70;99.90;;;;;;4934074;29;19942;-80
2022/07/29 11:42:20;;;;;;;;;;;19.70;99.90;;;;;;4912915;29;20416;-80
2022/07/29 11:45:05;;;;;;;;;;;19.70;99.90;;;;;;4930199;29;19938;-80
2022/07/29 11:47:32;;;;;;;;;;;19.80;99.90;;;;;;4933187;28;19973;-83
2022/07/29 11:49:59;;;;;;;;;;;19.80;99.90;;;;;;4933812;29;20531;-85
2022/07/29 11:52:46;;;;;;;;;;;19.90;99.90;;;;;;4922133;29;20370;-83
2022/07/29 11:55:13;;;;;;;;;;;20.00;99.90;;;;;;4927055;29;20305;-83
2022/07/29 11:57:49;;;;;;;;;;;20.20;99.90;;;;;;4949986;29;20405;-85
2022/07/29 12:00:29;;;;;;;;;;;20.40;99.90;;;;;;4924311;29;19934;-81
2022/07/29 12:02:55;;;;;;;;;;;20.50;99.90;;;;;;4944386;28;20000;-80
2022/07/29 12:05:30;;;;;;;;;;;20.60;99.90;;;;;;4953060;28;19930;-81
2022/07/29 12:08:03;;;;;;;;;;;20.70;99.90;;;;;;4953083;28;19930;-80
2022/07/29 12:10:32;;;;;;;;;;;20.80;99.90;;;;;;4964373;28;19926;-80
2022/07/29 12:12:58;;;;;;;;;;;20.90;99.90;;;;;;4966528;28;20344;-79
2022/07/29 12:15:25;;;;;;;;;;;21.00;99.90;;;;;;4951679;28;19973;-86
2022/07/29 12:17:52;;;;;;;;;;;21.00;99.90;;;;;;4921131;28;19950;-82
2022/07/29 12:20:25;;;;;;;;;;;21.10;99.90;;;;;;4969503;28;20411;-85
2022/07/29 12:22:53;;;;;;;;;;;21.20;99.90;;;;;;4952316;28;19937;-81
2022/07/29 12:25:19;;;;;;;;;;;21.30;99.90;;;;;;4952001;28;19934;-83
2022/07/29 12:27:45;;;;;;;;;;;21.40;99.90;;;;;;4952609;28;19930;-79
2022/07/29 12:30:16;;;;;;;;;;;21.50;99.90;;;;;;4932258;28;19979;-81
2022/07/29 12:32:46;;;;;;;;;;;21.80;99.90;;;;;;4953127;28;19983;-79
2022/07/29 12:35:15;;;;;;;;;;;21.80;99.90;;;;;;4969290;28;19926;-80
2022/07/29 12:37:44;;;;;;;;;;;21.80;99.90;;;;;;4954346;28;19976;-81
2022/07/29 12:40:10;;;;;;;;;;;21.80;99.90;;;;;;4958169;28;19930;-78
2022/07/29 12:42:37;;;;;;;;;;;21.80;99.90;;;;;;4935621;28;20404;-79
2022/07/29 12:45:03;;;;;;;;;;;21.80;99.90;;;;;;4949812;28;19922;-81
2022/07/29 12:47:29;;;;;;;;;;;21.90;99.90;;;;;;4950653;28;19976;-81
2022/07/29 12:50:11;;;;;;;;;;;21.90;99.90;;;;;;4968449;28;19994;-85
2022/07/29 12:52:38;;;;;;;;;;;21.90;99.90;;;;;;4935499;28;19993;-80
2022/07/29 12:55:04;;;;;;;;;;;21.90;99.90;;;;;;4948225;28;19933;-80
2022/07/29 12:57:31;;;;;;;;;;;21.90;99.90;;;;;;4951234;28;20012;-81
2022/07/29 13:00:09;;;;;;;;;;;21.90;99.90;;;;;;4933860;28;20020;-81
2022/07/29 13:02:36;;;;;;;;;;;21.90;99.90;;;;;;4948430;28;19930;-78
2022/07/29 13:05:03;;;;;;;;;;;21.90;99.90;;;;;;4951779;28;19934;-79
2022/07/29 13:07:30;;;;;;;;;;;21.90;99.90;;;;;;4951087;28;19929;-80
2022/07/29 13:10:14;;;;;;;;;;;21.90;99.90;;;;;;4959445;28;19938;-80
2022/07/29 13:12:59;;;;;;;;;;;22.00;99.90;;;;;;4951517;28;19989;-79
2022/07/29 13:15:25;;;;;;;;;;;22.00;99.90;;;;;;4948856;28;20397;-83
2022/07/29 13:17:50;;;;;;;;;;;22.10;99.90;;;;;;4951796;28;19932;-84
2022/07/29 13:20:17;;;;;;;;;;;22.20;99.90;;;;;;4919374;28;20447;-81
2022/07/29 13:22:47;;;;;;;;;;;22.30;99.90;;;;;;4946792;28;19973;-81
2022/07/29 13:25:14;;;;;;;;;;;22.30;99.90;;;;;;4951056;28;19977;-81
2022/07/29 13:27:40;;;;;;;;;;;22.40;99.90;;;;;;4948439;28;19927;-81
2022/07/29 13:30:12;;;;;;;;;;;22.50;99.90;;;;;;4952872;28;19976;-81
2022/07/29 13:32:38;;;;;;;;;;;22.60;99.90;;;;;;4967101;28;20028;-83
2022/07/29 13:35:05;;;;;;;;;;;22.70;99.90;;;;;;4943275;28;19951;-78
2022/07/29 13:37:33;;;;;;;;;;;22.80;99.90;;;;;;4959636;28;20285;-80
2022/07/29 13:39:59;;;;;;;;;;;22.90;99.90;;;;;;4957114;28;19934;-79
2022/07/29 13:42:26;;;;;;;;;;;23.00;99.90;;;;;;4958376;28;19933;-81
2022/07/29 13:44:52;;;;;;;;;;;23.20;99.90;;;;;;4970553;28;19934;-81
2022/07/29 13:47:18;;;;;;;;;;;23.20;99.90;;;;;;4935942;28;19929;-82
2022/07/29 13:49:44;;;;;;;;;;;23.20;99.90;;;;;;4968514;28;19930;-80
2022/07/29 13:52:10;;;;;;;;;;;23.20;99.90;;;;;;4951729;28;19930;-87
2022/07/29 13:54:37;;;;;;;;;;;23.20;99.90;;;;;;4950834;28;19957;-79
2022/07/29 13:57:03;;;;;;;;;;;23.30;99.90;;;;;;4950957;28;19930;-84
2022/07/29 13:59:29;;;;;;;;;;;23.30;99.90;;;;;;4934644;28;20401;-84
2022/07/29 14:01:55;;;;;;;;;;;23.30;99.90;;;;;;4954480;28;19973;-82
2022/07/29 14:04:22;;;;;;;;;;;23.30;99.90;;;;;;4968685;28;20697;-81
2022/07/29 14:06:49;;;;;;;;;;;23.30;99.90;;;;;;4965034;28;19933;-81
2022/07/29 14:09:15;;;;;;;;;;;23.20;99.90;;;;;;4963804;28;20020;-78
2022/07/29 14:11:42;;;;;;;;;;;23.20;99.90;;;;;;4956778;28;20017;-84
2022/07/29 14:14:09;;;;;;;;;;;23.30;99.90;;;;;;4961497;28;19926;-84
2022/07/29 14:16:35;;;;;;;;;;;23.20;99.90;;;;;;4934980;28;19937;-80
2022/07/29 14:19:01;;;;;;;;;;;23.20;99.90;;;;;;4958110;28;19930;-79
2022/07/29 14:21:27;;;;;;;;;;;23.20;99.90;;;;;;4967828;28;19930;-80
2022/07/29 14:23:54;;;;;;;;;;;23.20;99.90;;;;;;4970104;28;20278;-78
2022/07/29 14:26:21;;;;;;;;;;;23.20;99.90;;;;;;4934752;28;19926;-79
2022/07/29 14:28:47;;;;;;;;;;;23.20;99.90;;;;;;4973529;28;20455;-79
2022/07/29 14:31:12;;;;;;;;;;;23.10;99.90;;;;;;4963871;28;20400;-82
2022/07/29 14:33:38;;;;;;;;;;;23.10;99.90;;;;;;4960341;28;19996;-82
2022/07/29 14:36:04;;;;;;;;;;;23.10;99.80;;;;;;4942249;28;20420;-80
2022/07/29 14:38:30;;;;;;;;;;;23.10;99.00;;;;;;4960925;28;19934;-84
2022/07/29 14:40:55;;;;;;;;;;;23.10;99.40;;;;;;4964285;28;20024;-83
2022/07/29 14:43:21;;;;;;;;;;;23.10;98.40;;;;;;4966146;28;20394;-78
2022/07/29 14:45:47;;;;;;;;;;;23.10;99.00;;;;;;4961891;28;19980;-86
2022/07/29 14:48:14;;;;;;;;;;;23.10;99.90;;;;;;4945897;28;19930;-82
2022/07/29 14:50:40;;;;;;;;;;;23.10;99.10;;;;;;4959884;28;19922;-83
2022/07/29 14:53:06;;;;;;;;;;;23.10;99.00;;;;;;4950089;28;20073;-84
2022/07/29 14:55:32;;;;;;;;;;;23.10;97.60;;;;;;4959844;28;19953;-83
2022/07/29 14:57:58;;;;;;;;;;;23.10;99.60;;;;;;4930557;28;19926;-83
2022/07/29 15:00:25;;;;;;;;;;;23.10;98.80;;;;;;4945720;28;20379;-80
2022/07/29 15:02:51;;;;;;;;;;;23.10;99.30;;;;;;4950594;28;19981;-79
2022/07/29 15:05:17;;;;;;;;;;;23.00;98.90;;;;;;4957342;28;20000;-79
2022/07/29 15:07:43;;;;;;;;;;;23.00;98.90;;;;;;4938545;28;20384;-81
2022/07/29 15:10:10;;;;;;;;;;;23.00;97.40;;;;;;4962003;28;19933;-82
2022/07/29 15:12:36;;;;;;;;;;;23.00;98.70;;;;;;4942160;28;19937;-80
2022/07/29 15:15:02;;;;;;;;;;;23.00;98.10;;;;;;4951241;28;19943;-80